Island Lookout — WDF6311 — position and weather

sailwx.info

Track history (hours):
 
Tides and Currents Weather Stations Pressure Air Temp Water Temp Dewpoint Dewpoint Depression Visibility Wind Speed Wind Dir Waves Ship Positions

Island Lookout

Owner: Stevens Towing Company Inc., Yonges Island, SC. More information available from US FCC via Universal Licensing System and Coast Guard Vessel Documentation Center.

Last reported at 2015-May-21 17:07 UTC. Time now 2015-May-28 10:03 UTC.
Position N 39°12' W 076°35'.

Length 22 m; draft 2.9 m.

Type: Towing. MMSI: 367472930.

Date/timePositionNaut miles runAvg speedWind from/ knotsBaromVisibWave heightAir tempDewpointWater temp
2015-May-21 17:07N 39°12' W 076°35'0 0.0
2015-May-21 16:18N 39°12' W 076°35'2 0.5
2015-May-21 11:32N 39°13' W 076°32'8 6.4
2015-May-21 10:16N 39°08' W 076°24'3 2.8
2015-May-21 09:08N 39°06' W 076°21'11 6.5
2015-May-21 07:25N 39°16' W 076°14'6 6.9
2015-May-21 06:29N 39°21' W 076°10'6 6.7
2015-May-21 05:34N 39°24' W 076°03'6 6.5
2015-May-21 04:34N 39°29' W 075°57'6 5.8
2015-May-21 03:34N 39°32' W 075°50'5 5.1
2015-May-21 02:34N 39°32' W 075°44'5 4.7
2015-May-21 01:34N 39°33' W 075°38'4 3.8
2015-May-21 00:34N 39°36' W 075°34'8 7.7
2015-May-20 23:34N 39°43' W 075°30'8 8.0
2015-May-20 22:34N 39°49' W 075°24'8 7.5
2015-May-20 21:34N 39°51' W 075°14'6 5.9
2015-May-20 20:34N 39°54' W 075°08'2 1.7
2015-May-20 19:34N 39°56' W 075°08'0 0.0
2015-May-20 18:34N 39°56' W 075°08'0 0.0
2015-May-20 17:33N 39°56' W 075°08'0 0.0
2015-May-20 16:34N 39°56' W 075°08'0 0.0
2015-May-20 15:33N 39°56' W 075°08'0 0.0
2015-May-20 14:34N 39°56' W 075°08'0 0.0
2015-May-20 13:34N 39°56' W 075°08'0 0.0
2015-May-20 12:34N 39°56' W 075°08'0 0.0
2015-May-20 11:34N 39°56' W 075°08'0 0.0
2015-May-20 10:34N 39°56' W 075°08'0 0.0
2015-May-20 09:34N 39°56' W 075°08'0 0.0
2015-May-20 08:33N 39°56' W 075°08'0 0.0
2015-May-20 07:33N 39°56' W 075°08'0 0.0
2015-May-20 06:34N 39°56' W 075°08'0 0.0
2015-May-20 05:34N 39°56' W 075°08'0 0.0
2015-May-20 04:34N 39°56' W 075°08'0 0.0
2015-May-20 03:33N 39°56' W 075°08'2 2.4
2015-May-20 02:34N 39°54' W 075°08'3 2.9
2015-May-20 01:33N 39°54' W 075°12'0 0.0
2015-May-20 00:34N 39°54' W 075°12'0 0.0
2015-May-19 23:33N 39°54' W 075°12'0 0.0
2015-May-19 22:33N 39°54' W 075°12'0 0.0
2015-May-19 21:34N 39°54' W 075°12'0 0.0
2015-May-19 20:34N 39°54' W 075°12'0 0.0
2015-May-19 19:34N 39°54' W 075°12'0 0.0
2015-May-19 18:34N 39°54' W 075°12'2 2.3
2015-May-19 17:34N 39°52' W 075°14'8 8.5
2015-May-19 16:34N 39°49' W 075°24'9 8.5
2015-May-19 15:34N 39°42' W 075°31'8 7.8
2015-May-19 14:34N 39°35' W 075°33'7 7.4
2015-May-19 13:33N 39°33' W 075°42'9 8.6
2015-May-19 12:34N 39°31' W 075°53'8 7.5
2015-May-19 11:34N 39°26' W 076°01'7 7.0
2015-May-19 10:34N 39°22' W 076°08'7 6.3
2015-May-19 09:30N 39°17' W 076°14'6 6.2
2015-May-19 08:31N 39°11' W 076°17'6 6.3
2015-May-19 07:31N 39°06' W 076°21'6 6.6
2015-May-19 06:33N 38°60' W 076°23'  
2015-May-16 10:33N 38°07' W 076°16'44 5.5
2015-May-16 02:29N 38°51' W 076°26'23 5.7
2015-May-15 22:30N 39°13' W 076°32'29 3.2
2015-May-15 13:32N 38°44' W 076°27'8 7.2
2015-May-15 12:22N 38°36' W 076°27'29 7.0
2015-May-15 08:18N 38°09' W 076°16'  
Track history (hours):
 
Tides and Currents Weather Stations Pressure Air Temp Water Temp Dewpoint Dewpoint Depression Visibility Wind Speed Wind Dir Waves Ship Positions

Island Lookout

Owner: Stevens Towing Company Inc., Yonges Island, SC. More information available from US FCC via Universal Licensing System and Coast Guard Vessel Documentation Center.

Last reported at 2015-May-21 17:07 UTC. Time now 2015-May-28 10:03 UTC.
Position N 39°12' W 076°35'.

Length 22 m; draft 2.9 m.

Type: Towing. MMSI: 367472930.

Date/timePositionNaut miles runAvg speedWind from/ knotsBaromVisibWave heightAir tempDewpointWater temp
2015-May-21 17:07N 39°12' W 076°35'0 0.0
2015-May-21 16:18N 39°12' W 076°35'2 0.5
2015-May-21 11:32N 39°13' W 076°32'8 6.4
2015-May-21 10:16N 39°08' W 076°24'3 2.8
2015-May-21 09:08N 39°06' W 076°21'11 6.5
2015-May-21 07:25N 39°16' W 076°14'6 6.9
2015-May-21 06:29N 39°21' W 076°10'6 6.7
2015-May-21 05:34N 39°24' W 076°03'6 6.5
2015-May-21 04:34N 39°29' W 075°57'6 5.8
2015-May-21 03:34N 39°32' W 075°50'5 5.1
2015-May-21 02:34N 39°32' W 075°44'5 4.7
2015-May-21 01:34N 39°33' W 075°38'4 3.8
2015-May-21 00:34N 39°36' W 075°34'8 7.7
2015-May-20 23:34N 39°43' W 075°30'8 8.0
2015-May-20 22:34N 39°49' W 075°24'8 7.5
2015-May-20 21:34N 39°51' W 075°14'6 5.9
2015-May-20 20:34N 39°54' W 075°08'2 1.7
2015-May-20 19:34N 39°56' W 075°08'0 0.0
2015-May-20 18:34N 39°56' W 075°08'0 0.0
2015-May-20 17:33N 39°56' W 075°08'0 0.0
2015-May-20 16:34N 39°56' W 075°08'0 0.0
2015-May-20 15:33N 39°56' W 075°08'0 0.0
2015-May-20 14:34N 39°56' W 075°08'0 0.0
2015-May-20 13:34N 39°56' W 075°08'0 0.0
2015-May-20 12:34N 39°56' W 075°08'0 0.0
2015-May-20 11:34N 39°56' W 075°08'0 0.0
2015-May-20 10:34N 39°56' W 075°08'0 0.0
2015-May-20 09:34N 39°56' W 075°08'0 0.0
2015-May-20 08:33N 39°56' W 075°08'0 0.0
2015-May-20 07:33N 39°56' W 075°08'0 0.0
2015-May-20 06:34N 39°56' W 075°08'0 0.0
2015-May-20 05:34N 39°56' W 075°08'0 0.0
2015-May-20 04:34N 39°56' W 075°08'0 0.0
2015-May-20 03:33N 39°56' W 075°08'2 2.4
2015-May-20 02:34N 39°54' W 075°08'3 2.9
2015-May-20 01:33N 39°54' W 075°12'0 0.0
2015-May-20 00:34N 39°54' W 075°12'0 0.0
2015-May-19 23:33N 39°54' W 075°12'0 0.0
2015-May-19 22:33N 39°54' W 075°12'0 0.0
2015-May-19 21:34N 39°54' W 075°12'0 0.0
2015-May-19 20:34N 39°54' W 075°12'0 0.0
2015-May-19 19:34N 39°54' W 075°12'0 0.0
2015-May-19 18:34N 39°54' W 075°12'2 2.3
2015-May-19 17:34N 39°52' W 075°14'8 8.5
2015-May-19 16:34N 39°49' W 075°24'9 8.5
2015-May-19 15:34N 39°42' W 075°31'8 7.8
2015-May-19 14:34N 39°35' W 075°33'7 7.4
2015-May-19 13:33N 39°33' W 075°42'9 8.6
2015-May-19 12:34N 39°31' W 075°53'8 7.5
2015-May-19 11:34N 39°26' W 076°01'7 7.0
2015-May-19 10:34N 39°22' W 076°08'7 6.3
2015-May-19 09:30N 39°17' W 076°14'6 6.2
2015-May-19 08:31N 39°11' W 076°17'6 6.3
2015-May-19 07:31N 39°06' W 076°21'6 6.6
2015-May-19 06:33N 38°60' W 076°23'  
2015-May-16 10:33N 38°07' W 076°16'44 5.5
2015-May-16 02:29N 38°51' W 076°26'23 5.7
2015-May-15 22:30N 39°13' W 076°32'29 3.2
2015-May-15 13:32N 38°44' W 076°27'8 7.2
2015-May-15 12:22N 38°36' W 076°27'29 7.0
2015-May-15 08:18N 38°09' W 076°16'  

Dump ship's entire track history